No1 Tokuyama — JK5318 — position and weather

sailwx.info

Track history (hours):
 
Tides and Currents Weather Stations Pressure Air Temp Water Temp Dewpoint Dewpoint Depression Visibility Wind Speed Wind Dir Waves Ship Positions

No1 Tokuyama

Last reported at 2014-Aug-22 04:31 UTC. Time now 2014-Aug-22 06:01 UTC.
Position N 35°27' E 139°58'.

Length 110 m; draft 5.4 m.

Type: Cargo ship. MMSI: 431400487.

Date/timePositionNaut miles runAvg speedWind from/ knotsBaromVisibWave heightAir tempDewpointWater temp
2014-Aug-22 04:31N 35°27' E 139°58'0 0.0
2014-Aug-22 03:31N 35°27' E 139°58'0 0.0
2014-Aug-22 02:31N 35°27' E 139°58'0 0.0
2014-Aug-22 01:31N 35°27' E 139°58'0 0.0
2014-Aug-22 00:31N 35°27' E 139°58'0 0.0
2014-Aug-21 23:28N 35°27' E 139°58'0 0.0
2014-Aug-21 22:28N 35°27' E 139°58'0 0.0
2014-Aug-21 21:31N 35°27' E 139°58'0 0.0
2014-Aug-21 20:31N 35°27' E 139°58'0 0.0
2014-Aug-21 19:31N 35°27' E 139°58'0 0.0
2014-Aug-21 18:31N 35°27' E 139°58'0 0.0
2014-Aug-21 17:31N 35°27' E 139°58'0 0.0
2014-Aug-21 16:31N 35°27' E 139°58'0 0.0
2014-Aug-21 15:31N 35°27' E 139°58'0 0.0
2014-Aug-21 14:31N 35°27' E 139°58'0 0.0
2014-Aug-21 13:31N 35°27' E 139°58'0 0.0
2014-Aug-21 12:31N 35°27' E 139°58'0 0.0
2014-Aug-21 11:31N 35°27' E 139°58'0 0.0
2014-Aug-21 10:31N 35°27' E 139°58'0 0.0
2014-Aug-21 09:31N 35°27' E 139°58'0 0.0
2014-Aug-21 08:31N 35°27' E 139°58'0 0.0
2014-Aug-21 07:31N 35°27' E 139°58'0 0.0
2014-Aug-21 06:28N 35°27' E 139°58'0 0.0
2014-Aug-21 05:31N 35°27' E 139°58'0 0.0
2014-Aug-21 04:31N 35°27' E 139°58'5 5.6
2014-Aug-21 03:33N 35°28' E 139°51'9 8.3
2014-Aug-21 02:31N 35°26' E 139°41'0 0.0
2014-Aug-21 01:31N 35°26' E 139°41'0 0.0
2014-Aug-21 00:31N 35°26' E 139°41'3 3.0
2014-Aug-20 23:33N 35°23' E 139°43'1211.8
2014-Aug-20 22:33N 35°12' E 139°47'1212.1
2014-Aug-20 21:33N 35°01' E 139°39'1313.1
2014-Aug-20 20:33N 34°54' E 139°26'5112.3
2014-Aug-20 16:23N 34°29' E 138°32'  
2014-Aug-16 20:23N 33°50' E 132°16'2513.7
2014-Aug-16 18:34N 33°60' E 132°44'10012.4
2014-Aug-16 10:32N 34°31' E 134°39'1313.0
2014-Aug-16 09:33N 34°36' E 134°53'1110.8
2014-Aug-16 08:33N 34°36' E 135°07'9 8.6
2014-Aug-16 07:33N 34°41' E 135°15'1 0.9
2014-Aug-16 06:29N 34°42' E 135°14'0 0.0
2014-Aug-16 05:17N 34°42' E 135°14'0 0.0
2014-Aug-16 04:29N 34°42' E 135°14'0 0.0
2014-Aug-16 03:23N 34°42' E 135°14'0 0.0
2014-Aug-16 02:29N 34°42' E 135°14'0 0.0
2014-Aug-16 01:29N 34°42' E 135°14'0 0.0
2014-Aug-16 00:29N 34°42' E 135°14'0 0.0
2014-Aug-15 23:29N 34°42' E 135°14'0 0.0
2014-Aug-15 22:29N 34°42' E 135°14'0 0.0
2014-Aug-15 21:29N 34°42' E 135°14'0 0.0
2014-Aug-15 20:29N 34°42' E 135°14'0 0.0
2014-Aug-15 19:29N 34°42' E 135°14'0 0.0
2014-Aug-15 18:23N 34°42' E 135°14'0 0.0
2014-Aug-15 17:23N 34°42' E 135°14'0 0.0
2014-Aug-15 16:29N 34°42' E 135°14'0 0.0
2014-Aug-15 15:29N 34°42' E 135°14'0 0.0
2014-Aug-15 14:29N 34°42' E 135°14'0 0.0
2014-Aug-15 13:23N 34°42' E 135°14'0 0.0
2014-Aug-15 12:29N 34°42' E 135°14'0 0.0
2014-Aug-15 11:29N 34°42' E 135°14'0 0.0
2014-Aug-15 10:29N 34°42' E 135°14'0 0.0
2014-Aug-15 09:29N 34°42' E 135°14'0 0.0
2014-Aug-15 08:29N 34°42' E 135°14'0 0.0
2014-Aug-15 07:17N 34°42' E 135°14'0 0.0
2014-Aug-15 06:29N 34°42' E 135°14'0 0.0
2014-Aug-15 05:23N 34°42' E 135°14'0 0.0
2014-Aug-15 04:33N 34°42' E 135°14'5 4.9
2014-Aug-15 03:33N 34°38' E 135°18'0 0.3
2014-Aug-15 02:33N 34°38' E 135°18'7 7.0
2014-Aug-15 01:33N 34°39' E 135°26'0 0.1
2014-Aug-15 00:27N 34°39' E 135°27'0 0.0
2014-Aug-14 23:33N 34°39' E 135°27'0 0.0
2014-Aug-14 22:33N 34°39' E 135°27'0 0.0
2014-Aug-14 21:21N 34°39' E 135°27'0 0.0
2014-Aug-14 20:33N 34°39' E 135°27'0 0.0
2014-Aug-14 19:33N 34°39' E 135°27'0 0.0
2014-Aug-14 18:33N 34°39' E 135°27'0 0.0
2014-Aug-14 17:33N 34°39' E 135°27'0 0.0
2014-Aug-14 16:33N 34°39' E 135°27'0 0.0
2014-Aug-14 15:33N 34°39' E 135°27'0 0.0
2014-Aug-14 14:33N 34°39' E 135°27'0 0.0
2014-Aug-14 13:33N 34°39' E 135°27'0 0.0
2014-Aug-14 12:33N 34°39' E 135°27'0 0.0
2014-Aug-14 11:33N 34°39' E 135°27'0 0.0
2014-Aug-14 10:33N 34°39' E 135°27'0 0.0
2014-Aug-14 09:27N 34°39' E 135°27'0 0.0
2014-Aug-14 08:33N 34°39' E 135°27'0 0.0
2014-Aug-14 07:33N 34°39' E 135°27'6 5.6
2014-Aug-14 06:33N 34°36' E 135°20'1414.0
2014-Aug-14 05:33N 34°35' E 135°04'1414.1
2014-Aug-14 04:33N 34°40' E 134°47'6 0.9
2014-Aug-13 21:25N 34°41' E 134°40'  
Track history (hours):
 
Tides and Currents Weather Stations Pressure Air Temp Water Temp Dewpoint Dewpoint Depression Visibility Wind Speed Wind Dir Waves Ship Positions

No1 Tokuyama

Last reported at 2014-Aug-22 04:31 UTC. Time now 2014-Aug-22 06:01 UTC.
Position N 35°27' E 139°58'.

Length 110 m; draft 5.4 m.

Type: Cargo ship. MMSI: 431400487.

Date/timePositionNaut miles runAvg speedWind from/ knotsBaromVisibWave heightAir tempDewpointWater temp
2014-Aug-22 04:31N 35°27' E 139°58'0 0.0
2014-Aug-22 03:31N 35°27' E 139°58'0 0.0
2014-Aug-22 02:31N 35°27' E 139°58'0 0.0
2014-Aug-22 01:31N 35°27' E 139°58'0 0.0
2014-Aug-22 00:31N 35°27' E 139°58'0 0.0
2014-Aug-21 23:28N 35°27' E 139°58'0 0.0
2014-Aug-21 22:28N 35°27' E 139°58'0 0.0
2014-Aug-21 21:31N 35°27' E 139°58'0 0.0
2014-Aug-21 20:31N 35°27' E 139°58'0 0.0
2014-Aug-21 19:31N 35°27' E 139°58'0 0.0
2014-Aug-21 18:31N 35°27' E 139°58'0 0.0
2014-Aug-21 17:31N 35°27' E 139°58'0 0.0
2014-Aug-21 16:31N 35°27' E 139°58'0 0.0
2014-Aug-21 15:31N 35°27' E 139°58'0 0.0
2014-Aug-21 14:31N 35°27' E 139°58'0 0.0
2014-Aug-21 13:31N 35°27' E 139°58'0 0.0
2014-Aug-21 12:31N 35°27' E 139°58'0 0.0
2014-Aug-21 11:31N 35°27' E 139°58'0 0.0
2014-Aug-21 10:31N 35°27' E 139°58'0 0.0
2014-Aug-21 09:31N 35°27' E 139°58'0 0.0
2014-Aug-21 08:31N 35°27' E 139°58'0 0.0
2014-Aug-21 07:31N 35°27' E 139°58'0 0.0
2014-Aug-21 06:28N 35°27' E 139°58'0 0.0
2014-Aug-21 05:31N 35°27' E 139°58'0 0.0
2014-Aug-21 04:31N 35°27' E 139°58'5 5.6
2014-Aug-21 03:33N 35°28' E 139°51'9 8.3
2014-Aug-21 02:31N 35°26' E 139°41'0 0.0
2014-Aug-21 01:31N 35°26' E 139°41'0 0.0
2014-Aug-21 00:31N 35°26' E 139°41'3 3.0
2014-Aug-20 23:33N 35°23' E 139°43'1211.8
2014-Aug-20 22:33N 35°12' E 139°47'1212.1
2014-Aug-20 21:33N 35°01' E 139°39'1313.1
2014-Aug-20 20:33N 34°54' E 139°26'5112.3
2014-Aug-20 16:23N 34°29' E 138°32'  
2014-Aug-16 20:23N 33°50' E 132°16'2513.7
2014-Aug-16 18:34N 33°60' E 132°44'10012.4
2014-Aug-16 10:32N 34°31' E 134°39'1313.0
2014-Aug-16 09:33N 34°36' E 134°53'1110.8
2014-Aug-16 08:33N 34°36' E 135°07'9 8.6
2014-Aug-16 07:33N 34°41' E 135°15'1 0.9
2014-Aug-16 06:29N 34°42' E 135°14'0 0.0
2014-Aug-16 05:17N 34°42' E 135°14'0 0.0
2014-Aug-16 04:29N 34°42' E 135°14'0 0.0
2014-Aug-16 03:23N 34°42' E 135°14'0 0.0
2014-Aug-16 02:29N 34°42' E 135°14'0 0.0
2014-Aug-16 01:29N 34°42' E 135°14'0 0.0
2014-Aug-16 00:29N 34°42' E 135°14'0 0.0
2014-Aug-15 23:29N 34°42' E 135°14'0 0.0
2014-Aug-15 22:29N 34°42' E 135°14'0 0.0
2014-Aug-15 21:29N 34°42' E 135°14'0 0.0
2014-Aug-15 20:29N 34°42' E 135°14'0 0.0
2014-Aug-15 19:29N 34°42' E 135°14'0 0.0
2014-Aug-15 18:23N 34°42' E 135°14'0 0.0
2014-Aug-15 17:23N 34°42' E 135°14'0 0.0
2014-Aug-15 16:29N 34°42' E 135°14'0 0.0
2014-Aug-15 15:29N 34°42' E 135°14'0 0.0
2014-Aug-15 14:29N 34°42' E 135°14'0 0.0
2014-Aug-15 13:23N 34°42' E 135°14'0 0.0
2014-Aug-15 12:29N 34°42' E 135°14'0 0.0
2014-Aug-15 11:29N 34°42' E 135°14'0 0.0
2014-Aug-15 10:29N 34°42' E 135°14'0 0.0
2014-Aug-15 09:29N 34°42' E 135°14'0 0.0
2014-Aug-15 08:29N 34°42' E 135°14'0 0.0
2014-Aug-15 07:17N 34°42' E 135°14'0 0.0
2014-Aug-15 06:29N 34°42' E 135°14'0 0.0
2014-Aug-15 05:23N 34°42' E 135°14'0 0.0
2014-Aug-15 04:33N 34°42' E 135°14'5 4.9
2014-Aug-15 03:33N 34°38' E 135°18'0 0.3
2014-Aug-15 02:33N 34°38' E 135°18'7 7.0
2014-Aug-15 01:33N 34°39' E 135°26'0 0.1
2014-Aug-15 00:27N 34°39' E 135°27'0 0.0
2014-Aug-14 23:33N 34°39' E 135°27'0 0.0
2014-Aug-14 22:33N 34°39' E 135°27'0 0.0
2014-Aug-14 21:21N 34°39' E 135°27'0 0.0
2014-Aug-14 20:33N 34°39' E 135°27'0 0.0
2014-Aug-14 19:33N 34°39' E 135°27'0 0.0
2014-Aug-14 18:33N 34°39' E 135°27'0 0.0
2014-Aug-14 17:33N 34°39' E 135°27'0 0.0
2014-Aug-14 16:33N 34°39' E 135°27'0 0.0
2014-Aug-14 15:33N 34°39' E 135°27'0 0.0
2014-Aug-14 14:33N 34°39' E 135°27'0 0.0
2014-Aug-14 13:33N 34°39' E 135°27'0 0.0
2014-Aug-14 12:33N 34°39' E 135°27'0 0.0
2014-Aug-14 11:33N 34°39' E 135°27'0 0.0
2014-Aug-14 10:33N 34°39' E 135°27'0 0.0
2014-Aug-14 09:27N 34°39' E 135°27'0 0.0
2014-Aug-14 08:33N 34°39' E 135°27'0 0.0
2014-Aug-14 07:33N 34°39' E 135°27'6 5.6
2014-Aug-14 06:33N 34°36' E 135°20'1414.0
2014-Aug-14 05:33N 34°35' E 135°04'1414.1
2014-Aug-14 04:33N 34°40' E 134°47'6 0.9
2014-Aug-13 21:25N 34°41' E 134°40'  

Dump ship's entire track history